sensor_id;sensor_type;location;lat;lon;timestamp;pressure;altitude;pressure_sealevel;temperature;humidity
32638;BME280;19045;52.268;10.506;2023-02-13T00:00:34;102891.84;;;6.97;100.00
32638;BME280;19045;52.268;10.506;2023-02-13T00:03:01;102884.81;;;6.96;100.00
32638;BME280;19045;52.268;10.506;2023-02-13T00:05:28;102895.00;;;7.01;100.00
32638;BME280;19045;52.268;10.506;2023-02-13T00:07:55;102890.53;;;6.93;100.00
32638;BME280;19045;52.268;10.506;2023-02-13T00:10:22;102899.22;;;6.95;100.00
32638;BME280;19045;52.268;10.506;2023-02-13T00:12:49;102898.88;;;6.98;100.00
32638;BME280;19045;52.268;10.506;2023-02-13T00:15:15;102889.66;;;7.01;100.00
32638;BME280;19045;52.268;10.506;2023-02-13T00:17:42;102885.31;;;7.00;100.00
32638;BME280;19045;52.268;10.506;2023-02-13T00:20:10;102892.53;;;6.91;100.00
32638;BME280;19045;52.268;10.506;2023-02-13T00:22:37;102888.53;;;6.87;100.00
32638;BME280;19045;52.268;10.506;2023-02-13T00:25:07;102899.16;;;7.03;100.00
32638;BME280;19045;52.268;10.506;2023-02-13T00:27:33;102891.84;;;7.05;100.00
32638;BME280;19045;52.268;10.506;2023-02-13T00:30:00;102894.00;;;7.02;100.00
32638;BME280;19045;52.268;10.506;2023-02-13T00:32:27;102887.69;;;6.95;100.00
32638;BME280;19045;52.268;10.506;2023-02-13T00:34:53;102884.50;;;6.99;100.00
32638;BME280;19045;52.268;10.506;2023-02-13T00:37:20;102878.84;;;6.94;100.00
32638;BME280;19045;52.268;10.506;2023-02-13T00:39:47;102884.66;;;6.98;100.00
32638;BME280;19045;52.268;10.506;2023-02-13T00:42:15;102883.47;;;7.08;100.00
32638;BME280;19045;52.268;10.506;2023-02-13T00:44:41;102888.13;;;7.06;100.00
32638;BME280;19045;52.268;10.506;2023-02-13T00:47:08;102883.84;;;6.97;100.00
32638;BME280;19045;52.268;10.506;2023-02-13T00:49:38;102893.00;;;7.03;100.00
32638;BME280;19045;52.268;10.506;2023-02-13T00:52:05;102892.84;;;6.96;100.00
32638;BME280;19045;52.268;10.506;2023-02-13T00:54:32;102892.53;;;6.91;100.00
32638;BME280;19045;52.268;10.506;2023-02-13T00:56:58;102900.19;;;7.02;100.00
32638;BME280;19045;52.268;10.506;2023-02-13T00:59:26;102885.31;;;7.00;100.00
32638;BME280;19045;52.268;10.506;2023-02-13T01:01:53;102898.16;;;7.04;100.00
32638;BME280;19045;52.268;10.506;2023-02-13T01:04:19;102894.19;;;7.00;100.00
32638;BME280;19045;52.268;10.506;2023-02-13T01:06:46;102892.47;;;7.07;100.00
32638;BME280;19045;52.268;10.506;2023-02-13T01:09:13;102886.50;;;7.05;100.00
32638;BME280;19045;52.268;10.506;2023-02-13T01:11:39;102881.34;;;6.96;100.00
32638;BME280;19045;52.268;10.506;2023-02-13T01:14:06;102876.31;;;7.01;100.00
32638;BME280;19045;52.268;10.506;2023-02-13T01:16:34;102885.81;;;7.03;100.00
32638;BME280;19045;52.268;10.506;2023-02-13T01:19:00;102885.09;;;7.09;100.00
32638;BME280;19045;52.268;10.506;2023-02-13T01:21:27;102873.34;;;6.96;100.00
32638;BME280;19045;52.268;10.506;2023-02-13T01:23:53;102870.31;;;6.99;100.00
32638;BME280;19045;52.268;10.506;2023-02-13T01:26:21;102869.34;;;6.92;100.00
32638;BME280;19045;52.268;10.506;2023-02-13T01:28:51;102868.16;;;6.94;100.00
32638;BME280;19045;52.268;10.506;2023-02-13T01:31:18;102865.81;;;6.99;100.00
32638;BME280;19045;52.268;10.506;2023-02-13T01:33:46;102864.78;;;7.00;100.00
32638;BME280;19045;52.268;10.506;2023-02-13T01:36:13;102863.13;;;6.99;100.00
32638;BME280;19045;52.268;10.506;2023-02-13T01:38:40;102855.63;;;6.95;100.00
32638;BME280;19045;52.268;10.506;2023-02-13T01:41:07;102859.78;;;6.97;100.00
32638;BME280;19045;52.268;10.506;2023-02-13T01:43:47;102850.63;;;6.92;100.00
32638;BME280;19045;52.268;10.506;2023-02-13T01:46:16;102847.03;;;7.07;100.00
32638;BME280;19045;52.268;10.506;2023-02-13T01:48:47;102845.56;;;7.05;100.00
32638;BME280;19045;52.268;10.506;2023-02-13T01:51:17;102851.91;;;7.04;100.00
32638;BME280;19045;52.268;10.506;2023-02-13T01:53:47;102848.75;;;7.00;100.00
32638;BME280;19045;52.268;10.506;2023-02-13T01:56:20;102846.53;;;7.12;100.00
32638;BME280;19045;52.268;10.506;2023-02-13T01:58:51;102844.25;;;7.01;100.00
32638;BME280;19045;52.268;10.506;2023-02-13T02:01:20;102850.78;;;6.98;100.00
32638;BME280;19045;52.268;10.506;2023-02-13T02:03:53;102841.06;;;6.97;100.00
32638;BME280;19045;52.268;10.506;2023-02-13T02:06:24;102842.06;;;7.04;100.00
32638;BME280;19045;52.268;10.506;2023-02-13T02:08:52;102837.72;;;7.03;100.00
32638;BME280;19045;52.268;10.506;2023-02-13T02:11:26;102836.72;;;6.96;100.00
32638;BME280;19045;52.268;10.506;2023-02-13T02:13:55;102842.06;;;6.96;100.00
32638;BME280;19045;52.268;10.506;2023-02-13T02:16:24;102828.06;;;6.94;100.00
32638;BME280;19045;52.268;10.506;2023-02-13T02:18:52;102835.72;;;7.05;100.00
32638;BME280;19045;52.268;10.506;2023-02-13T02:27:54;102831.75;;;6.93;100.00
32638;BME280;19045;52.268;10.506;2023-02-13T02:33:44;102841.13;;;6.89;100.00
32638;BME280;19045;52.268;10.506;2023-02-13T02:36:24;102833.41;;;6.94;100.00
32638;BME280;19045;52.268;10.506;2023-02-13T02:39:01;102841.94;;;6.90;100.00
32638;BME280;19045;52.268;10.506;2023-02-13T02:41:37;102832.09;;;6.90;100.00
32638;BME280;19045;52.268;10.506;2023-02-13T02:44:13;102831.94;;;6.92;100.00
32638;BME280;19045;52.268;10.506;2023-02-13T02:46:54;102824.06;;;6.90;100.00
32638;BME280;19045;52.268;10.506;2023-02-13T02:49:43;102825.09;;;6.89;100.00
32638;BME280;19045;52.268;10.506;2023-02-13T02:52:30;102820.06;;;6.86;100.00
32638;BME280;19045;52.268;10.506;2023-02-13T02:55:06;102823.38;;;6.96;100.00
32638;BME280;19045;52.268;10.506;2023-02-13T02:57:40;102824.53;;;7.02;100.00
32638;BME280;19045;52.268;10.506;2023-02-13T03:00:27;102820.41;;;6.91;100.00
32638;BME280;19045;52.268;10.506;2023-02-13T03:03:15;102803.53;;;6.91;100.00
32638;BME280;19045;52.268;10.506;2023-02-13T03:06:03;102806.06;;;6.92;100.00
32638;BME280;19045;52.268;10.506;2023-02-13T03:08:40;102811.53;;;6.99;100.00
32638;BME280;19045;52.268;10.506;2023-02-13T03:11:25;102810.50;;;7.00;100.00
32638;BME280;19045;52.268;10.506;2023-02-13T03:14:10;102818.22;;;6.95;100.00
32638;BME280;19045;52.268;10.506;2023-02-13T03:16:39;102814.88;;;6.93;100.00
32638;BME280;19045;52.268;10.506;2023-02-13T03:19:37;102815.22;;;6.90;100.00
32638;BME280;19045;52.268;10.506;2023-02-13T03:22:34;102822.72;;;6.94;100.00
32638;BME280;19045;52.268;10.506;2023-02-13T03:25:10;102825.72;;;6.99;100.00
32638;BME280;19045;52.268;10.506;2023-02-13T03:27:45;102820.06;;;6.94;100.00
32638;BME280;19045;52.268;10.506;2023-02-13T03:30:39;102815.06;;;6.91;100.00
32638;BME280;19045;52.268;10.506;2023-02-13T03:33:18;102813.94;;;6.86;100.00
32638;BME280;19045;52.268;10.506;2023-02-13T03:35:54;102813.38;;;6.90;100.00
32638;BME280;19045;52.268;10.506;2023-02-13T03:39:04;102810.38;;;6.93;100.00
32638;BME280;19045;52.268;10.506;2023-02-13T03:41:37;102810.41;;;6.85;100.00
32638;BME280;19045;52.268;10.506;2023-02-13T03:44:11;102813.38;;;6.98;100.00
32638;BME280;19045;52.268;10.506;2023-02-13T03:46:40;102817.88;;;6.98;100.00
32638;BME280;19045;52.268;10.506;2023-02-13T03:49:13;102815.34;;;6.96;100.00
32638;BME280;19045;52.268;10.506;2023-02-13T03:52:02;102819.53;;;6.99;100.00
32638;BME280;19045;52.268;10.506;2023-02-13T03:54:37;102821.19;;;7.00;100.00
32638;BME280;19045;52.268;10.506;2023-02-13T03:57:24;102821.06;;;6.93;100.00
32638;BME280;19045;52.268;10.506;2023-02-13T04:00:12;102818.72;;;6.90;100.00
32638;BME280;19045;52.268;10.506;2023-02-13T04:02:48;102823.72;;;6.93;100.00
32638;BME280;19045;52.268;10.506;2023-02-13T04:05:20;102824.56;;;6.94;100.00
32638;BME280;19045;52.268;10.506;2023-02-13T04:07:47;102833.56;;;6.93;100.00
32638;BME280;19045;52.268;10.506;2023-02-13T04:10:16;102821.75;;;6.87;100.00
32638;BME280;19045;52.268;10.506;2023-02-13T04:12:50;102823.28;;;6.82;100.00
32638;BME280;19045;52.268;10.506;2023-02-13T04:15:26;102833.63;;;6.85;100.00
32638;BME280;19045;52.268;10.506;2023-02-13T04:18:01;102831.13;;;6.83;100.00
32638;BME280;19045;52.268;10.506;2023-02-13T04:20:30;102822.25;;;6.91;100.00
32638;BME280;19045;52.268;10.506;2023-02-13T04:23:03;102819.75;;;6.89;100.00
32638;BME280;19045;52.268;10.506;2023-02-13T04:25:31;102818.78;;;6.82;100.00
32638;BME280;19045;52.268;10.506;2023-02-13T04:27:58;102812.06;;;6.86;100.00
32638;BME280;19045;52.268;10.506;2023-02-13T04:30:25;102811.75;;;6.89;100.00
32638;BME280;19045;52.268;10.506;2023-02-13T04:32:52;102811.59;;;6.83;100.00
32638;BME280;19045;52.268;10.506;2023-02-13T04:35:18;102816.47;;;6.79;100.00
32638;BME280;19045;52.268;10.506;2023-02-13T04:37:45;102812.47;;;6.75;100.00
32638;BME280;19045;52.268;10.506;2023-02-13T04:40:12;102813.44;;;6.82;100.00
32638;BME280;19045;52.268;10.506;2023-02-13T04:42:40;102816.13;;;6.82;100.00
32638;BME280;19045;52.268;10.506;2023-02-13T04:45:07;102812.75;;;6.80;100.00
32638;BME280;19045;52.268;10.506;2023-02-13T04:47:34;102809.25;;;6.80;100.00
32638;BME280;19045;52.268;10.506;2023-02-13T04:50:01;102807.75;;;6.85;100.00
32638;BME280;19045;52.268;10.506;2023-02-13T04:52:27;102794.75;;;6.82;100.00
32638;BME280;19045;52.268;10.506;2023-02-13T04:54:54;102795.09;;;6.79;100.00
32638;BME280;19045;52.268;10.506;2023-02-13T04:57:21;102798.91;;;6.85;100.00
32638;BME280;19045;52.268;10.506;2023-02-13T04:59:48;102799.91;;;6.84;100.00
32638;BME280;19045;52.268;10.506;2023-02-13T05:02:15;102795.44;;;6.76;100.00
32638;BME280;19045;52.268;10.506;2023-02-13T05:04:42;102792.72;;;6.84;100.00
32638;BME280;19045;52.268;10.506;2023-02-13T05:07:08;102797.41;;;6.82;100.00
32638;BME280;19045;52.268;10.506;2023-02-13T05:09:35;102806.94;;;6.76;100.00
32638;BME280;19045;52.268;10.506;2023-02-13T05:12:01;102798.41;;;6.81;100.00
32638;BME280;19045;52.268;10.506;2023-02-13T05:14:28;102805.25;;;6.84;100.00
32638;BME280;19045;52.268;10.506;2023-02-13T05:16:56;102802.75;;;6.82;100.00
32638;BME280;19045;52.268;10.506;2023-02-13T05:19:22;102807.75;;;6.85;100.00
32638;BME280;19045;52.268;10.506;2023-02-13T05:21:49;102810.59;;;6.84;100.00
32638;BME280;19045;52.268;10.506;2023-02-13T05:24:33;102814.94;;;6.85;100.00
32638;BME280;19045;52.268;10.506;2023-02-13T05:27:00;102819.13;;;6.79;100.00
32638;BME280;19045;52.268;10.506;2023-02-13T05:29:26;102818.28;;;6.79;100.00
32638;BME280;19045;52.268;10.506;2023-02-13T05:31:56;102815.78;;;6.77;100.00
32638;BME280;19045;52.268;10.506;2023-02-13T05:34:25;102815.75;;;6.85;100.00
32638;BME280;19045;52.268;10.506;2023-02-13T05:36:53;102817.81;;;6.75;100.00
32638;BME280;19045;52.268;10.506;2023-02-13T05:39:19;102824.34;;;6.72;100.00
32638;BME280;19045;52.268;10.506;2023-02-13T05:41:47;102821.66;;;6.72;100.00
32638;BME280;19045;52.268;10.506;2023-02-13T05:44:14;102815.97;;;6.75;100.00
32638;BME280;19045;52.268;10.506;2023-02-13T05:46:42;102822.16;;;6.76;100.00
32638;BME280;19045;52.268;10.506;2023-02-13T05:49:12;102815.53;;;6.95;100.00
32638;BME280;19045;52.268;10.506;2023-02-13T05:51:38;102818.56;;;6.92;100.00
32638;BME280;19045;52.268;10.506;2023-02-13T05:54:05;102817.72;;;6.91;100.00
32638;BME280;19045;52.268;10.506;2023-02-13T05:56:32;102817.94;;;6.82;100.00
32638;BME280;19045;52.268;10.506;2023-02-13T05:58:58;102818.28;;;6.79;100.00
32638;BME280;19045;52.268;10.506;2023-02-13T06:01:25;102812.59;;;6.82;100.00
32638;BME280;19045;52.268;10.506;2023-02-13T06:03:52;102810.78;;;6.82;100.00
32638;BME280;19045;52.268;10.506;2023-02-13T06:06:19;102819.00;;;6.72;100.00
32638;BME280;19045;52.268;10.506;2023-02-13T06:08:47;102817.13;;;6.81;100.00
32638;BME280;19045;52.268;10.506;2023-02-13T06:11:13;102816.41;;;6.87;100.00
32638;BME280;19045;52.268;10.506;2023-02-13T06:13:40;102819.78;;;6.81;100.00
32638;BME280;19045;52.268;10.506;2023-02-13T06:16:07;102817.13;;;6.81;100.00
32638;BME280;19045;52.268;10.506;2023-02-13T06:18:33;102820.91;;;6.87;100.00
32638;BME280;19045;52.268;10.506;2023-02-13T06:21:00;102818.78;;;6.82;100.00
32638;BME280;19045;52.268;10.506;2023-02-13T06:23:37;102831.50;;;6.72;100.00
32638;BME280;19045;52.268;10.506;2023-02-13T06:26:06;102828.97;;;6.79;100.00
32638;BME280;19045;52.268;10.506;2023-02-13T06:28:33;102824.13;;;6.82;100.00
32638;BME280;19045;52.268;10.506;2023-02-13T06:31:00;102837.16;;;6.77;100.00
32638;BME280;19045;52.268;10.506;2023-02-13T06:33:27;102844.13;;;6.86;100.00
32638;BME280;19045;52.268;10.506;2023-02-13T06:35:53;102843.66;;;6.83;100.00
32638;BME280;19045;52.268;10.506;2023-02-13T06:38:20;102848.53;;;6.79;100.00
32638;BME280;19045;52.268;10.506;2023-02-13T06:40:48;102843.53;;;6.76;100.00
32638;BME280;19045;52.268;10.506;2023-02-13T06:43:16;102854.72;;;6.71;100.00
32638;BME280;19045;52.268;10.506;2023-02-13T06:45:43;102853.16;;;6.85;100.00
32638;BME280;19045;52.268;10.506;2023-02-13T06:48:11;102850.50;;;6.85;100.00
32638;BME280;19045;52.268;10.506;2023-02-13T06:50:38;102857.19;;;6.81;100.00
32638;BME280;19045;52.268;10.506;2023-02-13T06:53:04;102850.50;;;6.85;100.00
32638;BME280;19045;52.268;10.506;2023-02-13T06:55:31;102852.47;;;6.83;100.00
32638;BME280;19045;52.268;10.506;2023-02-13T06:57:59;102859.84;;;6.81;100.00
32638;BME280;19045;52.268;10.506;2023-02-13T07:00:25;102855.50;;;6.80;100.00
32638;BME280;19045;52.268;10.506;2023-02-13T07:02:52;102858.72;;;6.75;100.00
32638;BME280;19045;52.268;10.506;2023-02-13T07:05:19;102858.50;;;6.85;100.00
32638;BME280;19045;52.268;10.506;2023-02-13T07:07:45;102862.88;;;6.78;100.00
32638;BME280;19045;52.268;10.506;2023-02-13T07:10:13;102863.84;;;6.85;100.00
32638;BME280;19045;52.268;10.506;2023-02-13T07:12:40;102866.53;;;6.77;100.00
32638;BME280;19045;52.268;10.506;2023-02-13T07:15:08;102863.03;;;6.76;100.00
32638;BME280;19045;52.268;10.506;2023-02-13T07:17:35;102866.88;;;6.82;100.00
32638;BME280;19045;52.268;10.506;2023-02-13T07:20:02;102866.81;;;6.98;100.00
32638;BME280;19045;52.268;10.506;2023-02-13T07:22:30;102865.63;;;7.01;100.00
32638;BME280;19045;52.268;10.506;2023-02-13T07:24:57;102862.28;;;6.99;100.00
32638;BME280;19045;52.268;10.506;2023-02-13T07:27:24;102857.59;;;7.01;100.00
32638;BME280;19045;52.268;10.506;2023-02-13T07:29:53;102869.28;;;7.00;100.00
32638;BME280;19045;52.268;10.506;2023-02-13T07:32:21;102863.13;;;6.99;100.00
32638;BME280;19045;52.268;10.506;2023-02-13T07:34:48;102865.47;;;6.94;100.00
32638;BME280;19045;52.268;10.506;2023-02-13T07:37:14;102874.78;;;7.06;100.00
32638;BME280;19045;52.268;10.506;2023-02-13T07:39:41;102874.78;;;7.06;100.00
32638;BME280;19045;52.268;10.506;2023-02-13T07:42:08;102876.78;;;7.04;100.00
32638;BME280;19045;52.268;10.506;2023-02-13T07:44:34;102877.63;;;7.05;100.00
32638;BME280;19045;52.268;10.506;2023-02-13T07:47:01;102880.13;;;7.06;100.00
32638;BME280;19045;52.268;10.506;2023-02-13T07:49:29;102883.13;;;7.03;100.00
32638;BME280;19045;52.268;10.506;2023-02-13T07:51:56;102882.50;;;7.01;100.00
32638;BME280;19045;52.268;10.506;2023-02-13T07:54:23;102882.50;;;7.01;100.00
32638;BME280;19045;52.268;10.506;2023-02-13T07:56:50;102879.31;;;6.98;100.00
32638;BME280;19045;52.268;10.506;2023-02-13T07:59:16;102892.81;;;7.04;100.00
32638;BME280;19045;52.268;10.506;2023-02-13T08:01:43;102887.84;;;7.01;100.00
32638;BME280;19045;52.268;10.506;2023-02-13T08:04:09;102889.50;;;7.02;100.00
32638;BME280;19045;52.268;10.506;2023-02-13T08:06:41;102888.19;;;6.98;100.00
32638;BME280;19045;52.268;10.506;2023-02-13T08:09:17;102899.50;;;7.08;100.00
32638;BME280;19045;52.268;10.506;2023-02-13T08:12:02;102880.75;;;7.16;100.00
32638;BME280;19045;52.268;10.506;2023-02-13T08:14:29;102890.78;;;7.14;100.00
32638;BME280;19045;52.268;10.506;2023-02-13T08:16:58;102895.94;;;7.16;100.00
32638;BME280;19045;52.268;10.506;2023-02-13T08:19:25;102897.81;;;7.07;100.00
32638;BME280;19045;52.268;10.506;2023-02-13T08:21:53;102902.47;;;7.13;100.00
32638;BME280;19045;52.268;10.506;2023-02-13T08:24:20;102899.63;;;7.15;100.00
32638;BME280;19045;52.268;10.506;2023-02-13T08:26:55;102905.00;;;7.07;100.00
32638;BME280;19045;52.268;10.506;2023-02-13T08:29:21;102902.81;;;7.18;100.00
32638;BME280;19045;52.268;10.506;2023-02-13T08:31:48;102894.44;;;7.13;100.00
32638;BME280;19045;52.268;10.506;2023-02-13T08:34:15;102901.25;;;7.32;100.00
32638;BME280;19045;52.268;10.506;2023-02-13T08:36:41;102897.41;;;7.26;100.00
32638;BME280;19045;52.268;10.506;2023-02-13T08:39:09;102890.06;;;7.28;100.00
32638;BME280;19045;52.268;10.506;2023-02-13T08:41:36;102889.03;;;7.29;100.00
32638;BME280;19045;52.268;10.506;2023-02-13T08:44:03;102898.44;;;7.25;100.00
32638;BME280;19045;52.268;10.506;2023-02-13T08:46:29;102898.94;;;7.21;100.00
32638;BME280;19045;52.268;10.506;2023-02-13T08:48:56;102898.09;;;7.20;100.00
32638;BME280;19045;52.268;10.506;2023-02-13T08:51:22;102887.41;;;7.20;100.00
32638;BME280;19045;52.268;10.506;2023-02-13T08:53:49;102898.16;;;7.12;100.00
32638;BME280;19045;52.268;10.506;2023-02-13T08:56:17;102901.84;;;7.03;100.00
32638;BME280;19045;52.268;10.506;2023-02-13T08:58:47;102891.97;;;7.12;100.00
32638;BME280;19045;52.268;10.506;2023-02-13T09:01:13;102892.81;;;7.12;100.00
32638;BME280;19045;52.268;10.506;2023-02-13T09:03:40;102896.47;;;7.11;100.00
32638;BME280;19045;52.268;10.506;2023-02-13T09:06:07;102897.81;;;7.07;100.00
32638;BME280;19045;52.268;10.506;2023-02-13T09:08:34;102898.16;;;7.12;100.00
32638;BME280;19045;52.268;10.506;2023-02-13T09:11:02;102909.16;;;7.17;100.00
32638;BME280;19045;52.268;10.506;2023-02-13T09:13:32;102902.34;;;7.07;100.00
32638;BME280;19045;52.268;10.506;2023-02-13T09:16:02;102903.81;;;7.09;100.00
32638;BME280;19045;52.268;10.506;2023-02-13T09:18:29;102903.78;;;7.17;100.00
32638;BME280;19045;52.268;10.506;2023-02-13T09:20:57;102905.13;;;7.21;100.00
32638;BME280;19045;52.268;10.506;2023-02-13T09:23:25;102905.59;;;7.25;100.00
32638;BME280;19045;52.268;10.506;2023-02-13T09:25:51;102901.75;;;7.27;100.00
32638;BME280;19045;52.268;10.506;2023-02-13T09:28:18;102893.56;;;7.29;100.00
32638;BME280;19045;52.268;10.506;2023-02-13T09:30:46;102905.16;;;7.13;100.00
32638;BME280;19045;52.268;10.506;2023-02-13T09:33:14;102902.53;;;7.05;100.00
32638;BME280;19045;52.268;10.506;2023-02-13T09:35:40;102901.84;;;7.03;100.00
32638;BME280;19045;52.268;10.506;2023-02-13T09:38:09;102906.34;;;7.03;100.00
32638;BME280;19045;52.268;10.506;2023-02-13T09:40:42;102902.53;;;7.05;100.00
32638;BME280;19045;52.268;10.506;2023-02-13T09:43:15;102899.31;;;7.10;100.00
32638;BME280;19045;52.268;10.506;2023-02-13T09:45:43;102904.16;;;7.14;100.00
32638;BME280;19045;52.268;10.506;2023-02-13T09:48:18;102911.97;;;7.16;100.00
32638;BME280;19045;52.268;10.506;2023-02-13T09:50:50;102901.81;;;7.11;100.00
32638;BME280;19045;52.268;10.506;2023-02-13T09:53:20;102895.13;;;7.15;100.00
32638;BME280;19045;52.268;10.506;2023-02-13T09:55:53;102903.78;;;7.17;100.00
32638;BME280;19045;52.268;10.506;2023-02-13T09:58:33;102908.50;;;7.07;100.00
32638;BME280;19045;52.268;10.506;2023-02-13T10:01:02;102905.97;;;7.14;100.00
32638;BME280;19045;52.268;10.506;2023-02-13T10:03:34;102915.13;;;7.19;100.00
32638;BME280;19045;52.268;10.506;2023-02-13T10:06:06;102910.81;;;7.18;100.00
32638;BME280;19045;52.268;10.506;2023-02-13T10:08:47;102910.34;;;7.15;100.00
32638;BME280;19045;52.268;10.506;2023-02-13T10:11:36;102912.19;;;7.06;100.00
32638;BME280;19045;52.268;10.506;2023-02-13T10:14:12;102917.19;;;7.09;100.00
32638;BME280;19045;52.268;10.506;2023-02-13T10:16:42;102918.84;;;7.10;100.00
32638;BME280;19045;52.268;10.506;2023-02-13T10:19:18;102919.00;;;7.17;100.00
32638;BME280;19045;52.268;10.506;2023-02-13T10:21:52;102926.53;;;7.13;100.00
32638;BME280;19045;52.268;10.506;2023-02-13T10:24:27;102927.56;;;7.12;100.00
32638;BME280;19045;52.268;10.506;2023-02-13T10:26:57;102922.66;;;7.16;100.00
32638;BME280;19045;52.268;10.506;2023-02-13T10:29:35;102920.47;;;7.27;100.00
32638;BME280;19045;52.268;10.506;2023-02-13T10:32:26;102922.66;;;7.16;100.00
32638;BME280;19045;52.268;10.506;2023-02-13T10:35:00;102915.84;;;7.13;100.00
32638;BME280;19045;52.268;10.506;2023-02-13T10:37:28;102918.84;;;7.10;100.00
32638;BME280;19045;52.268;10.506;2023-02-13T10:39:55;102913.34;;;7.12;100.00
32638;BME280;19045;52.268;10.506;2023-02-13T10:42:28;102907.78;;;7.21;100.00
32638;BME280;19045;52.268;10.506;2023-02-13T10:45:08;102918.63;;;7.28;100.00
32638;BME280;19045;52.268;10.506;2023-02-13T10:47:55;102914.28;;;7.27;100.00
32638;BME280;19045;52.268;10.506;2023-02-13T10:50:29;102906.72;;;7.39;100.00
32638;BME280;19045;52.268;10.506;2023-02-13T10:53:10;102917.91;;;7.34;100.00
32638;BME280;19045;52.268;10.506;2023-02-13T10:56:03;102906.38;;;7.34;100.00
32638;BME280;19045;52.268;10.506;2023-02-13T10:58:41;102917.56;;;7.37;100.00
32638;BME280;19045;52.268;10.506;2023-02-13T11:01:17;102913.09;;;7.29;100.00
32638;BME280;19045;52.268;10.506;2023-02-13T11:03:45;102909.38;;;7.39;100.00
32638;BME280;19045;52.268;10.506;2023-02-13T11:06:14;102901.53;;;7.37;100.00
32638;BME280;19045;52.268;10.506;2023-02-13T11:08:44;102910.75;;;7.35;100.00
32638;BME280;19045;52.268;10.506;2023-02-13T11:11:31;102899.97;;;7.43;100.00
32638;BME280;19045;52.268;10.506;2023-02-13T11:14:09;102903.28;;;7.53;100.00
32638;BME280;19045;52.268;10.506;2023-02-13T11:16:46;102892.66;;;7.37;100.00
32638;BME280;19045;52.268;10.506;2023-02-13T11:19:19;102897.63;;;7.48;100.00
32638;BME280;19045;52.268;10.506;2023-02-13T11:21:53;102901.91;;;7.57;100.00
32638;BME280;19045;52.268;10.506;2023-02-13T11:24:22;102896.53;;;7.65;100.00
32638;BME280;19045;52.268;10.506;2023-02-13T11:26:52;102899.25;;;7.79;100.00
32638;BME280;19045;52.268;10.506;2023-02-13T11:29:23;102898.41;;;7.79;100.00
32638;BME280;19045;52.268;10.506;2023-02-13T11:32:17;102899.44;;;7.78;99.94
32638;BME280;19045;52.268;10.506;2023-02-13T11:34:44;102888.66;;;7.63;99.92
32638;BME280;19045;52.268;10.506;2023-02-13T11:37:24;102890.63;;;7.69;99.79
32638;BME280;19045;52.268;10.506;2023-02-13T11:39:52;102894.50;;;7.90;98.94
32638;BME280;19045;52.268;10.506;2023-02-13T11:42:25;102885.00;;;7.87;97.73
32638;BME280;19045;52.268;10.506;2023-02-13T11:44:54;102881.84;;;7.84;98.44
32638;BME280;19045;52.268;10.506;2023-02-13T11:47:35;102876.84;;;8.03;99.21
32638;BME280;19045;52.268;10.506;2023-02-13T11:50:04;102882.66;;;8.07;96.97
32638;BME280;19045;52.268;10.506;2023-02-13T11:52:34;102883.56;;;7.99;96.68
32638;BME280;19045;52.268;10.506;2023-02-13T11:55:03;102887.66;;;7.87;98.23
32638;BME280;19045;52.268;10.506;2023-02-13T11:57:32;102886.34;;;7.83;97.79
32638;BME280;19045;52.268;10.506;2023-02-13T12:00:25;102890.06;;;7.82;98.00
32638;BME280;19045;52.268;10.506;2023-02-13T12:02:52;102876.09;;;7.72;98.30
32638;BME280;19045;52.268;10.506;2023-02-13T12:05:20;102878.31;;;7.83;99.19
32638;BME280;19045;52.268;10.506;2023-02-13T12:07:49;102873.75;;;7.92;98.34
32638;BME280;19045;52.268;10.506;2023-02-13T12:10:19;102879.41;;;7.74;98.75
32638;BME280;19045;52.268;10.506;2023-02-13T12:12:54;102868.34;;;7.77;99.31
32638;BME280;19045;52.268;10.506;2023-02-13T12:15:29;102857.63;;;7.77;98.26
32638;BME280;19045;52.268;10.506;2023-02-13T12:18:09;102865.72;;;7.92;98.08
32638;BME280;19045;52.268;10.506;2023-02-13T12:20:48;102863.75;;;8.08;98.36
32638;BME280;19045;52.268;10.506;2023-02-13T12:23:28;102856.53;;;8.09;97.03
32638;BME280;19045;52.268;10.506;2023-02-13T12:26:09;102853.84;;;8.09;96.26
32638;BME280;19045;52.268;10.506;2023-02-13T12:28:49;102851.06;;;8.02;96.13
32638;BME280;19045;52.268;10.506;2023-02-13T12:37:47;102845.81;;;7.94;97.48
32638;BME280;19045;52.268;10.506;2023-02-13T12:40:24;102840.41;;;8.17;97.24
32638;BME280;19045;52.268;10.506;2023-02-13T12:43:06;102830.81;;;8.22;95.32
32638;BME280;19045;52.268;10.506;2023-02-13T12:45:41;102836.34;;;8.21;96.05
32638;BME280;19045;52.268;10.506;2023-02-13T12:48:25;102835.75;;;8.34;95.91
32638;BME280;19045;52.268;10.506;2023-02-13T12:51:02;102829.41;;;8.35;95.22
32638;BME280;19045;52.268;10.506;2023-02-13T12:53:54;102834.84;;;8.41;95.71
32638;BME280;19045;52.268;10.506;2023-02-13T12:56:36;102829.59;;;8.48;94.61
32638;BME280;19045;52.268;10.506;2023-02-13T12:59:09;102830.97;;;8.73;94.75
32638;BME280;19045;52.268;10.506;2023-02-13T13:04:44;102828.25;;;8.29;95.43
32638;BME280;19045;52.268;10.506;2023-02-13T13:07:22;102823.75;;;8.29;96.46
32638;BME280;19045;52.268;10.506;2023-02-13T13:10:15;102824.22;;;8.33;96.00
32638;BME280;19045;52.268;10.506;2023-02-13T13:12:52;102818.66;;;8.49;94.82
32638;BME280;19045;52.268;10.506;2023-02-13T13:15:29;102820.34;;;8.65;94.10
32638;BME280;19045;52.268;10.506;2023-02-13T13:18:04;102826.22;;;8.75;92.69
32638;BME280;19045;52.268;10.506;2023-02-13T13:20:50;102823.28;;;8.70;93.63